Time;durP1;ratioP1;P1;durP2;ratioP2;P2;SDS_P1;SDS_P2;PMS_P1;PMS_P2;Temp;Humidity;BMP_temperature;BMP_pressure;BME280_temperature;BME280_humidity;BME280_pressure;Samples;Min_cycle;Max_cycle;Signal;HPM_P1;HPM_P2
2022/06/15 00:02:05;;;;;;;7.63;4.15;;;14.90;93.80;;;;;;5033381;28;20056;-34
2022/06/15 00:04:33;;;;;;;8.80;4.30;;;14.90;93.90;;;;;;5033723;28;20081;-33
2022/06/15 00:07:00;;;;;;;11.57;3.88;;;14.90;93.80;;;;;;5034933;28;20405;-34
2022/06/15 00:09:27;;;;;;;8.25;4.63;;;14.80;93.70;;;;;;5029030;28;20037;-34
2022/06/15 00:11:54;;;;;;;7.97;4.20;;;14.80;93.70;;;;;;5032288;28;20084;-34
2022/06/15 00:14:22;;;;;;;9.23;4.00;;;14.80;94.10;;;;;;5034200;28;20092;-34
2022/06/15 00:16:49;;;;;;;9.85;4.20;;;14.70;93.80;;;;;;5030394;28;20081;-33
2022/06/15 00:19:16;;;;;;;10.15;4.80;;;14.70;94.00;;;;;;5032170;28;20144;-37
2022/06/15 00:21:44;;;;;;;7.22;4.05;;;14.60;94.20;;;;;;5033065;28;20099;-33
2022/06/15 00:24:11;;;;;;;7.82;4.10;;;14.60;94.30;;;;;;5033098;28;20050;-33
2022/06/15 00:26:38;;;;;;;6.10;4.10;;;14.60;94.20;;;;;;5034295;28;20561;-33
2022/06/15 00:29:05;;;;;;;9.73;4.47;;;14.50;94.40;;;;;;5033421;28;20130;-33
2022/06/15 00:31:31;;;;;;;16.80;5.03;;;14.50;94.50;;;;;;5031497;28;20142;-33
2022/06/15 00:33:58;;;;;;;7.22;4.10;;;14.40;94.60;;;;;;5034659;28;20061;-33
2022/06/15 00:36:25;;;;;;;8.85;4.45;;;14.40;94.60;;;;;;5033068;28;20099;-34
2022/06/15 00:38:54;;;;;;;5.78;3.38;;;14.40;94.70;;;;;;5033904;28;20140;-33
2022/06/15 00:41:22;;;;;;;7.15;4.32;;;14.30;94.60;;;;;;5031842;28;20045;-33
2022/06/15 00:43:50;;;;;;;9.48;4.57;;;14.30;94.70;;;;;;5032671;28;20081;-33
2022/06/15 00:46:21;;;;;;;5.95;3.83;;;14.30;94.80;;;;;;5033185;28;20088;-33
2022/06/15 00:48:49;;;;;;;8.00;3.35;;;14.20;94.70;;;;;;5033009;28;20081;-32
2022/06/15 00:51:16;;;;;;;8.88;4.20;;;14.20;94.50;;;;;;5034949;28;20081;-32
2022/06/15 00:53:43;;;;;;;6.95;4.28;;;14.10;94.50;;;;;;5033983;28;20128;-33
2022/06/15 00:56:11;;;;;;;7.20;4.20;;;14.10;94.80;;;;;;5032586;28;20049;-33
2022/06/15 00:58:38;;;;;;;7.30;4.15;;;14.10;94.80;;;;;;5031545;28;20081;-32
2022/06/15 01:01:05;;;;;;;7.90;4.22;;;14.10;94.90;;;;;;5031619;28;20504;-33
2022/06/15 01:03:32;;;;;;;9.00;4.57;;;14.00;95.00;;;;;;5031728;28;20059;-33
2022/06/15 01:06:02;;;;;;;5.93;4.00;;;14.00;95.10;;;;;;5032481;28;20038;-33
2022/06/15 01:08:34;;;;;;;6.75;3.72;;;13.90;95.20;;;;;;5032808;28;20133;-33
2022/06/15 01:11:19;;;;;;;7.00;4.05;;;13.90;95.00;;;;;;5033520;28;20054;-33
2022/06/15 01:14:08;;;;;;;7.72;4.22;;;13.90;95.00;;;;;;5030465;28;20103;-34
2022/06/15 01:16:38;;;;;;;7.13;4.15;;;13.90;95.00;;;;;;5029407;28;20045;-34
2022/06/15 01:19:18;;;;;;;7.27;4.17;;;13.80;95.30;;;;;;5030359;28;20107;-33
2022/06/15 01:21:49;;;;;;;6.90;4.35;;;13.80;95.30;;;;;;5027904;28;20304;-33
2022/06/15 01:24:28;;;;;;;10.10;4.00;;;13.70;95.30;;;;;;5032173;28;20481;-33
2022/06/15 01:27:26;;;;;;;7.82;4.30;;;13.70;95.40;;;;;;5031048;28;20572;-34
2022/06/15 01:30:20;;;;;;;7.05;4.38;;;13.70;95.20;;;;;;5023960;28;20140;-33
2022/06/15 01:32:55;;;;;;;5.53;3.80;;;13.60;95.10;;;;;;5033033;28;20053;-33
2022/06/15 01:35:24;;;;;;;6.53;4.00;;;13.60;95.50;;;;;;5033609;28;20133;-33
2022/06/15 01:37:56;;;;;;;7.82;3.92;;;13.60;95.70;;;;;;5033620;28;20115;-33
2022/06/15 01:40:24;;;;;;;5.50;4.18;;;13.50;95.50;;;;;;5031303;28;20575;-33
2022/06/15 01:42:54;;;;;;;7.10;4.70;;;13.50;95.50;;;;;;5031196;28;20499;-33
2022/06/15 01:45:24;;;;;;;8.13;4.30;;;13.50;95.70;;;;;;5032229;28;20089;-33
2022/06/15 01:47:51;;;;;;;5.60;3.75;;;13.40;95.90;;;;;;5032684;28;20083;-33
2022/06/15 01:50:20;;;;;;;7.53;3.40;;;13.40;95.90;;;;;;5028530;28;20084;-33
2022/06/15 01:52:48;;;;;;;8.75;4.10;;;13.40;96.00;;;;;;5033947;28;20077;-33
2022/06/15 01:55:18;;;;;;;6.05;3.45;;;13.40;96.10;;;;;;5030551;28;20053;-34
2022/06/15 01:57:45;;;;;;;9.00;4.15;;;13.30;96.10;;;;;;5031386;28;20124;-33
2022/06/15 02:00:14;;;;;;;7.60;3.65;;;13.30;96.20;;;;;;5031232;28;20136;-33
2022/06/15 02:02:46;;;;;;;10.20;4.00;;;13.30;96.00;;;;;;5016657;28;20520;-33
2022/06/15 02:05:15;;;;;;;8.55;3.67;;;13.20;96.20;;;;;;5032676;28;20096;-33
2022/06/15 02:07:45;;;;;;;8.40;3.58;;;13.20;96.30;;;;;;5026447;28;20050;-33
2022/06/15 02:10:16;;;;;;;6.10;3.78;;;13.10;96.10;;;;;;5030821;28;20045;-33
2022/06/15 02:12:45;;;;;;;6.97;3.50;;;13.20;96.20;;;;;;5031419;28;20187;-33
2022/06/15 02:15:12;;;;;;;6.05;3.60;;;13.20;96.10;;;;;;5030439;28;20332;-33
2022/06/15 02:17:40;;;;;;;7.15;3.28;;;13.10;96.30;;;;;;5029365;28;20132;-33
2022/06/15 02:20:10;;;;;;;6.32;4.18;;;13.10;96.20;;;;;;5030553;28;20520;-34
2022/06/15 02:22:37;;;;;;;5.30;3.83;;;13.00;96.30;;;;;;5031925;28;20057;-33
2022/06/15 02:25:07;;;;;;;6.13;3.50;;;13.10;96.40;;;;;;5031363;28;20097;-33
2022/06/15 02:27:34;;;;;;;6.10;3.83;;;13.00;96.30;;;;;;5030469;28;20133;-33
2022/06/15 02:30:05;;;;;;;7.18;3.53;;;13.00;96.20;;;;;;5030839;28;20088;-33
2022/06/15 02:32:32;;;;;;;;;;;13.00;96.30;;;;;;5031625;28;20100;-33
2022/06/15 02:34:59;;;;;;;5.55;3.55;;;12.90;95.30;;;;;;5031173;28;19925;-33
2022/06/15 02:37:27;;;;;;;8.45;3.63;;;12.90;96.10;;;;;;5029872;28;20111;-34
2022/06/15 02:39:54;;;;;;;7.85;3.63;;;12.90;96.40;;;;;;5031348;28;20081;-34
2022/06/15 02:42:27;;;;;;;6.95;3.70;;;12.90;96.50;;;;;;5030882;28;20103;-34
2022/06/15 02:44:54;;;;;;;7.57;4.25;;;12.80;96.50;;;;;;5030049;28;20099;-33
2022/06/15 02:47:21;;;;;;;5.00;3.50;;;12.80;96.60;;;;;;5028857;28;20128;-33
2022/06/15 02:49:51;;;;;;;8.82;4.18;;;12.70;96.50;;;;;;5029035;28;20053;-34
2022/06/15 02:52:18;;;;;;;7.13;4.20;;;12.70;96.70;;;;;;5030467;28;20132;-33
2022/06/15 02:54:48;;;;;;;9.73;4.22;;;12.70;96.60;;;;;;5029644;28;20076;-34
2022/06/15 02:57:15;;;;;;;8.27;4.10;;;12.70;97.00;;;;;;5026191;28;20440;-33
2022/06/15 02:59:41;;;;;;;8.30;4.38;;;12.70;97.00;;;;;;5030283;28;20045;-33
2022/06/15 03:02:08;;;;;;;7.18;3.75;;;12.60;96.90;;;;;;5030016;28;20148;-33
2022/06/15 03:04:35;;;;;;;8.43;4.05;;;12.60;96.70;;;;;;5030724;28;20128;-32
2022/06/15 03:07:02;;;;;;;6.40;3.75;;;12.60;96.80;;;;;;5029462;28;20483;-32
2022/06/15 03:09:29;;;;;;;8.25;4.20;;;12.60;96.90;;;;;;5031697;28;20150;-32
2022/06/15 03:11:57;;;;;;;5.25;3.63;;;12.60;97.10;;;;;;5031438;28;20050;-32
2022/06/15 03:14:24;;;;;;;7.95;4.35;;;12.50;97.10;;;;;;5029064;28;20140;-33
2022/06/15 03:16:51;;;;;;;6.05;3.20;;;12.50;97.10;;;;;;5030593;28;20115;-33
2022/06/15 03:19:18;;;;;;;8.43;4.63;;;12.50;97.00;;;;;;5029894;28;20053;-33
2022/06/15 03:21:44;;;;;;;6.75;4.35;;;12.50;97.30;;;;;;5030721;28;20119;-33
2022/06/15 03:24:11;;;;;;;8.05;4.22;;;12.50;97.50;;;;;;5029581;28;20077;-34
2022/06/15 03:26:38;;;;;;;8.02;4.20;;;12.40;97.70;;;;;;5029789;28;20136;-34
2022/06/15 03:29:06;;;;;;;6.47;4.18;;;12.40;97.40;;;;;;5030398;28;20136;-33
2022/06/15 03:31:33;;;;;;;9.07;4.43;;;12.40;97.50;;;;;;5028606;28;20111;-33
2022/06/15 03:34:00;;;;;;;11.05;4.47;;;12.40;97.50;;;;;;5025567;28;20469;-34
2022/06/15 03:36:26;;;;;;;8.35;4.45;;;12.40;97.80;;;;;;5028596;28;20553;-33
2022/06/15 03:38:53;;;;;;;8.70;3.92;;;12.40;97.90;;;;;;5026461;28;20077;-33
2022/06/15 03:41:20;;;;;;;7.68;3.95;;;12.40;97.90;;;;;;5027957;28;20115;-33
2022/06/15 03:43:47;;;;;;;9.88;4.45;;;12.40;98.10;;;;;;5030334;28;20207;-34
2022/06/15 03:46:15;;;;;;;8.23;4.35;;;12.40;98.00;;;;;;5027757;28;20049;-33
2022/06/15 03:48:42;;;;;;;9.88;4.40;;;12.40;98.10;;;;;;5030797;28;20447;-34
2022/06/15 03:51:09;;;;;;;7.72;4.25;;;12.40;98.00;;;;;;5024341;28;20068;-34
2022/06/15 03:53:36;;;;;;;5.88;4.20;;;12.40;98.10;;;;;;5026139;28;20053;-33
2022/06/15 03:56:03;;;;;;;7.05;3.88;;;12.40;98.00;;;;;;5027013;28;20460;-33
2022/06/15 03:58:30;;;;;;;6.55;3.88;;;12.40;98.10;;;;;;5028672;28;20386;-33
2022/06/15 04:00:57;;;;;;;6.03;4.22;;;12.40;98.00;;;;;;5026993;28;20777;-34
2022/06/15 04:03:25;;;;;;;8.95;5.20;;;12.40;98.10;;;;;;5031332;28;20460;-34
2022/06/15 04:05:54;;;;;;;9.65;5.22;;;12.40;98.50;;;;;;5023280;28;20124;-34
2022/06/15 04:08:42;;;;;;;8.05;4.85;;;12.40;98.80;;;;;;5028944;28;20061;-34
2022/06/15 04:11:09;;;;;;;8.82;5.22;;;12.40;99.00;;;;;;5028087;28;20053;-33
2022/06/15 04:13:37;;;;;;;13.90;6.30;;;12.40;98.90;;;;;;5029627;28;20088;-33
2022/06/15 04:16:05;;;;;;;9.27;4.40;;;12.40;99.70;;;;;;5030329;28;20538;-33
2022/06/15 04:18:33;;;;;;;8.98;4.65;;;12.40;99.30;;;;;;5030520;28;21600;-33
2022/06/15 04:21:00;;;;;;;7.90;5.40;;;12.40;99.20;;;;;;5025237;28;20118;-33
2022/06/15 04:23:26;;;;;;;15.00;7.53;;;12.40;99.20;;;;;;5029185;28;20057;-33
2022/06/15 04:25:58;;;;;;;12.13;6.20;;;12.50;99.90;;;;;;5029262;28;20080;-33
2022/06/15 04:28:26;;;;;;;13.77;6.35;;;12.40;99.90;;;;;;5023810;28;20401;-33
2022/06/15 04:30:52;;;;;;;9.48;4.93;;;12.40;99.90;;;;;;5030979;28;20133;-33
2022/06/15 04:33:19;;;;;;;7.53;5.10;;;12.50;99.90;;;;;;5030449;28;20141;-34
2022/06/15 04:35:47;;;;;;;6.82;5.00;;;12.50;99.90;;;;;;5027914;28;20172;-33
2022/06/15 04:38:14;;;;;;;10.80;5.78;;;12.50;99.70;;;;;;5030343;28;20142;-33
2022/06/15 04:40:41;;;;;;;7.57;4.93;;;12.60;99.70;;;;;;5034879;28;20130;-33
2022/06/15 04:43:08;;;;;;;16.13;7.60;;;12.60;99.60;;;;;;5032959;28;20489;-33
2022/06/15 04:45:35;;;;;;;16.20;6.53;;;12.60;99.90;;;;;;5028943;28;20091;-34
2022/06/15 04:48:02;;;;;;;10.90;5.75;;;12.60;99.90;;;;;;5023275;28;20141;-34
2022/06/15 04:50:29;;;;;;;11.43;5.65;;;12.60;99.90;;;;;;5033919;28;20083;-34
2022/06/15 04:52:57;;;;;;;8.65;5.15;;;12.60;99.90;;;;;;5031222;28;20072;-34
2022/06/15 04:55:24;;;;;;;9.15;5.25;;;12.70;99.90;;;;;;5031065;28;20056;-34
2022/06/15 04:57:54;;;;;;;9.93;4.80;;;12.70;99.90;;;;;;5030702;28;20080;-34
2022/06/15 05:00:21;;;;;;;10.10;7.45;;;12.70;99.90;;;;;;5032457;28;20085;-34
2022/06/15 05:02:48;;;;;;;15.57;7.75;;;12.80;99.90;;;;;;5033193;28;20088;-34
2022/06/15 05:05:15;;;;;;;8.30;5.50;;;12.90;99.90;;;;;;5033347;28;20091;-33
2022/06/15 05:07:42;;;;;;;9.95;6.10;;;12.90;99.90;;;;;;5029153;28;20125;-31
2022/06/15 05:10:12;;;;;;;12.10;7.03;;;13.00;99.90;;;;;;5033958;28;20079;-33
2022/06/15 05:12:38;;;;;;;16.08;8.18;;;13.00;99.90;;;;;;5033382;28;20131;-33
2022/06/15 05:15:06;;;;;;;16.98;7.22;;;13.10;99.90;;;;;;5030484;28;20129;-32
2022/06/15 05:17:33;;;;;;;15.15;7.53;;;13.20;99.90;;;;;;5031248;28;20053;-33
2022/06/15 05:20:00;;;;;;;17.25;8.20;;;13.20;99.90;;;;;;5033963;28;20076;-33
2022/06/15 05:22:27;;;;;;;16.05;7.45;;;13.30;99.90;;;;;;5034949;28;20045;-32
2022/06/15 05:24:54;;;;;;;12.93;7.00;;;13.40;99.90;;;;;;5033606;28;20137;-33
2022/06/15 05:27:22;;;;;;;10.98;5.85;;;13.50;99.90;;;;;;5033721;28;20541;-33
2022/06/15 05:29:48;;;;;;;11.50;6.10;;;13.50;99.90;;;;;;5034692;28;20152;-33
2022/06/15 05:32:16;;;;;;;15.10;7.53;;;13.60;99.90;;;;;;5034159;28;20099;-33
2022/06/15 05:34:43;;;;;;;14.15;7.32;;;13.70;99.90;;;;;;5034543;28;20559;-33
2022/06/15 05:37:10;;;;;;;16.17;7.10;;;13.90;99.90;;;;;;5033638;28;20049;-33
2022/06/15 05:39:37;;;;;;;13.25;7.60;;;13.90;99.90;;;;;;5033610;28;20085;-33
2022/06/15 05:42:04;;;;;;;17.33;7.72;;;14.10;99.90;;;;;;5033575;28;20147;-33
2022/06/15 05:44:38;;;;;;;15.40;7.50;;;14.20;99.90;;;;;;5034385;28;20401;-33
2022/06/15 05:47:06;;;;;;;15.07;7.20;;;14.30;99.90;;;;;;5033320;28;20057;-33
2022/06/15 05:49:34;;;;;;;13.98;7.13;;;14.40;99.90;;;;;;5033103;28;20057;-34
2022/06/15 05:52:01;;;;;;;24.73;7.55;;;14.50;99.90;;;;;;5033552;28;20061;-33
2022/06/15 05:54:27;;;;;;;10.60;6.40;;;14.70;99.90;;;;;;5034231;28;20057;-33
2022/06/15 05:56:54;;;;;;;13.38;6.35;;;14.80;99.90;;;;;;5033498;28;20539;-33
2022/06/15 05:59:21;;;;;;;12.00;6.43;;;14.90;99.90;;;;;;5032918;28;20567;-33
2022/06/15 06:01:49;;;;;;;13.13;6.60;;;15.00;99.90;;;;;;5032731;28;20237;-33
2022/06/15 06:04:18;;;;;;;10.32;6.32;;;15.10;99.90;;;;;;5034163;28;20136;-33
2022/06/15 06:06:45;;;;;;;16.58;6.60;;;15.20;99.90;;;;;;5031634;28;20493;-33
2022/06/15 06:09:11;;;;;;;12.18;6.53;;;15.40;99.90;;;;;;5032486;28;20060;-33
2022/06/15 06:11:38;;;;;;;9.85;6.47;;;15.50;99.90;;;;;;5032893;28;20085;-34
2022/06/15 06:14:06;;;;;;;13.27;6.05;;;15.50;99.90;;;;;;5033830;28;20088;-33
2022/06/15 06:16:32;;;;;;;10.90;5.88;;;15.60;99.90;;;;;;5032674;28;20125;-34
2022/06/15 06:19:00;;;;;;;10.05;5.32;;;15.80;99.90;;;;;;5032920;28;20128;-33
2022/06/15 06:21:27;;;;;;;14.82;5.90;;;15.90;99.90;;;;;;5032953;28;20057;-34
2022/06/15 06:23:54;;;;;;;10.38;5.80;;;16.10;99.90;;;;;;5033756;28;20084;-34
2022/06/15 06:26:23;;;;;;;14.23;5.10;;;16.20;99.90;;;;;;5032738;28;20160;-34
2022/06/15 06:28:50;;;;;;;14.02;5.93;;;16.40;99.90;;;;;;5033407;28;20680;-34
2022/06/15 06:31:19;;;;;;;13.20;5.07;;;16.60;99.90;;;;;;5033231;28;20041;-34
2022/06/15 06:33:46;;;;;;;11.48;4.78;;;16.80;99.90;;;;;;5032976;28;20041;-34
2022/06/15 06:36:16;;;;;;;11.52;5.03;;;16.90;99.30;;;;;;5031854;28;20481;-34
2022/06/15 06:38:43;;;;;;;11.85;4.68;;;17.10;98.80;;;;;;5033378;28;20132;-34
2022/06/15 06:41:10;;;;;;;12.27;4.63;;;17.20;98.70;;;;;;5032117;28;20604;-34
2022/06/15 06:43:37;;;;;;;9.05;3.83;;;17.30;98.10;;;;;;5033244;28;20056;-34
2022/06/15 06:46:04;;;;;;;8.63;4.40;;;17.50;97.60;;;;;;5032096;28;20057;-34
2022/06/15 06:48:31;;;;;;;12.45;4.65;;;17.50;97.30;;;;;;5031953;28;20478;-34
2022/06/15 06:50:58;;;;;;;11.63;3.92;;;17.70;97.20;;;;;;5033050;28;20544;-34
2022/06/15 06:53:26;;;;;;;10.80;3.30;;;17.80;96.80;;;;;;5032180;28;20557;-34
2022/06/15 06:55:53;;;;;;;11.77;4.03;;;18.00;96.40;;;;;;5033004;28;20046;-34
2022/06/15 06:58:19;;;;;;;8.07;3.33;;;18.10;96.40;;;;;;5032405;28;20096;-34
2022/06/15 07:00:47;;;;;;;12.45;3.38;;;18.30;96.00;;;;;;5031826;28;20041;-34
2022/06/15 07:03:13;;;;;;;9.70;3.17;;;18.50;95.90;;;;;;5032748;28;20057;-34
2022/06/15 07:05:40;;;;;;;10.50;3.20;;;18.60;95.60;;;;;;5033070;28;20053;-34
2022/06/15 07:08:08;;;;;;;11.30;3.08;;;18.80;95.30;;;;;;5033050;28;20084;-34
2022/06/15 07:10:37;;;;;;;12.93;2.80;;;18.90;94.50;;;;;;5031729;28;20124;-34
2022/06/15 07:13:05;;;;;;;9.73;3.30;;;19.10;94.30;;;;;;5031314;28;20097;-34
2022/06/15 07:15:32;;;;;;;10.93;2.70;;;19.30;93.90;;;;;;5032000;28;20111;-34
2022/06/15 07:17:59;;;;;;;6.22;2.53;;;19.40;94.00;;;;;;5031887;28;20050;-35
2022/06/15 07:20:26;;;;;;;9.98;2.67;;;19.60;93.50;;;;;;5031399;28;20486;-34
2022/06/15 07:22:54;;;;;;;12.65;3.00;;;19.70;93.10;;;;;;5031884;28;20535;-34
2022/06/15 07:25:21;;;;;;;9.52;2.75;;;19.90;92.40;;;;;;5032673;28;20064;-34
2022/06/15 07:27:49;;;;;;;8.60;3.00;;;20.00;91.80;;;;;;5032688;28;20084;-34
2022/06/15 07:30:19;;;;;;;8.35;2.53;;;20.00;91.30;;;;;;5032509;28;20545;-34
2022/06/15 07:32:45;;;;;;;10.60;2.55;;;20.20;91.60;;;;;;5031830;28;20053;-34
2022/06/15 07:35:14;;;;;;;7.20;2.53;;;20.30;91.50;;;;;;5032600;28;20095;-34
2022/06/15 07:37:40;;;;;;;7.63;1.98;;;20.50;90.60;;;;;;5032647;28;20099;-34
2022/06/15 07:40:08;;;;;;;12.77;2.30;;;20.60;89.80;;;;;;5031494;28;20144;-34
2022/06/15 07:42:35;;;;;;;8.20;1.90;;;20.80;87.50;;;;;;5032403;28;20137;-35
2022/06/15 07:45:04;;;;;;;8.40;2.55;;;20.80;87.50;;;;;;5032602;28;20045;-34
2022/06/15 07:50:15;;;;;;;9.45;2.58;;;21.10;85.70;;;;;;5032504;28;20394;-35
2022/06/15 07:52:44;;;;;;;7.15;1.90;;;21.20;86.00;;;;;;5030814;28;20122;-35
2022/06/15 07:55:12;;;;;;;6.43;2.10;;;21.30;83.90;;;;;;5030731;28;20064;-34
2022/06/15 07:57:39;;;;;;;6.15;1.65;;;21.40;82.70;;;;;;5030789;28;20053;-34
2022/06/15 08:00:09;;;;;;;7.75;2.25;;;21.40;81.30;;;;;;5031543;28;20057;-34
2022/06/15 08:02:36;;;;;;;4.78;1.90;;;21.50;81.30;;;;;;5031971;28;20077;-34
2022/06/15 08:05:03;;;;;;;6.50;1.92;;;21.60;82.20;;;;;;5031262;28;20058;-34
2022/06/15 08:07:30;;;;;;;8.20;1.95;;;21.50;80.60;;;;;;5032228;28;20088;-34
2022/06/15 08:09:57;;;;;;;7.05;2.15;;;21.40;79.60;;;;;;5032130;28;20085;-34
2022/06/15 08:12:24;;;;;;;6.10;2.25;;;21.40;80.30;;;;;;5031334;28;20514;-34
2022/06/15 08:14:52;;;;;;;5.75;1.70;;;21.50;79.60;;;;;;5034209;28;20053;-33
2022/06/15 08:17:22;;;;;;;8.25;1.88;;;21.50;76.00;;;;;;5036250;28;20123;-34
2022/06/15 08:19:50;;;;;;;4.90;1.70;;;21.60;75.90;;;;;;5034721;28;20111;-34
2022/06/15 08:22:17;;;;;;;5.00;2.05;;;21.80;76.80;;;;;;5035057;28;20085;-35
2022/06/15 08:24:44;;;;;;;10.13;2.53;;;21.90;76.20;;;;;;5035884;28;20076;-35
2022/06/15 08:27:11;;;;;;;6.72;1.52;;;21.90;75.60;;;;;;5034248;28;20077;-35
2022/06/15 08:29:38;;;;;;;7.03;1.90;;;21.90;75.10;;;;;;5034747;28;20045;-35
2022/06/15 08:32:05;;;;;;;6.63;2.33;;;22.00;75.20;;;;;;5034657;28;20045;-35
2022/06/15 08:34:37;;;;;;;7.22;1.92;;;22.30;74.10;;;;;;5034640;28;20053;-35
2022/06/15 08:37:04;;;;;;;10.45;2.10;;;22.40;72.90;;;;;;5035739;28;20085;-33
2022/06/15 08:39:31;;;;;;;5.15;1.52;;;22.40;72.80;;;;;;5035480;28;20111;-34
2022/06/15 08:42:02;;;;;;;9.02;1.75;;;22.40;72.50;;;;;;5034815;28;20081;-34
2022/06/15 08:44:34;;;;;;;5.05;1.30;;;22.60;71.60;;;;;;5034403;28;20085;-34
2022/06/15 08:47:06;;;;;;;3.80;1.35;;;22.50;72.00;;;;;;5033907;28;20053;-35
2022/06/15 08:49:48;;;;;;;6.15;1.60;;;22.50;72.20;;;;;;5034379;28;20129;-34
2022/06/15 08:52:17;;;;;;;7.07;1.45;;;22.50;73.60;;;;;;5035716;28;20080;-34
2022/06/15 08:54:47;;;;;;;7.57;1.75;;;22.60;73.30;;;;;;5035600;28;20058;-34
2022/06/15 08:57:18;;;;;;;7.03;1.90;;;22.80;72.10;;;;;;5033997;28;20133;-35
2022/06/15 08:59:47;;;;;;;7.80;1.60;;;22.90;70.80;;;;;;5035374;28;20056;-34
2022/06/15 09:02:17;;;;;;;9.40;1.90;;;23.10;70.50;;;;;;5033444;28;20045;-34
2022/06/15 09:04:49;;;;;;;4.93;1.70;;;23.30;69.20;;;;;;5035556;28;20084;-34
2022/06/15 09:07:24;;;;;;;4.78;1.70;;;23.50;69.20;;;;;;5033965;28;20049;-34
2022/06/15 09:10:04;;;;;;;3.72;1.52;;;23.70;67.70;;;;;;5035138;28;20045;-34
2022/06/15 09:12:55;;;;;;;5.63;1.57;;;23.80;67.20;;;;;;5034066;28;20099;-34
2022/06/15 09:15:34;;;;;;;7.90;1.67;;;23.60;66.20;;;;;;5033724;28;20292;-34
2022/06/15 09:18:03;;;;;;;3.53;1.50;;;23.40;65.00;;;;;;5034982;28;20284;-34
2022/06/15 09:20:34;;;;;;;7.10;1.60;;;23.30;66.30;;;;;;5034766;28;20104;-34
2022/06/15 09:23:03;;;;;;;7.85;1.73;;;23.50;66.70;;;;;;5033777;28;20076;-34
2022/06/15 09:25:31;;;;;;;6.47;1.95;;;23.60;65.60;;;;;;5032774;28;20088;-34
2022/06/15 09:28:01;;;;;;;6.10;2.10;;;23.70;66.00;;;;;;5034718;28;20128;-34
2022/06/15 09:30:29;;;;;;;7.07;2.03;;;23.80;66.10;;;;;;5032257;28;20049;-34
2022/06/15 09:32:59;;;;;;;5.80;2.00;;;23.80;65.60;;;;;;5014996;28;20077;-34
2022/06/15 09:35:28;;;;;;;5.47;1.60;;;23.90;65.70;;;;;;5014818;28;20058;-35
2022/06/15 09:37:58;;;;;;;6.40;2.22;;;24.00;66.60;;;;;;5014874;28;20156;-35
2022/06/15 09:40:27;;;;;;;4.63;1.80;;;24.10;65.40;;;;;;5013663;28;20519;-35
2022/06/15 09:42:57;;;;;;;4.38;1.60;;;24.20;63.90;;;;;;5014902;28;20136;-35
2022/06/15 09:45:27;;;;;;;3.83;1.88;;;24.10;63.50;;;;;;5028856;28;20066;-35
2022/06/15 09:47:58;;;;;;;5.82;1.60;;;23.70;63.40;;;;;;5033570;28;20045;-35
2022/06/15 09:50:29;;;;;;;5.50;1.63;;;23.50;65.10;;;;;;5033127;28;20084;-35
2022/06/15 09:53:04;;;;;;;5.60;1.67;;;23.50;66.00;;;;;;5033093;28;20095;-35
2022/06/15 09:55:34;;;;;;;7.47;2.08;;;23.50;66.00;;;;;;5033164;28;20053;-35
2022/06/15 09:58:01;;;;;;;9.25;1.90;;;23.60;67.00;;;;;;5030610;28;20148;-35
2022/06/15 10:00:28;;;;;;;5.88;1.98;;;23.80;66.80;;;;;;5028456;28;20144;-35
2022/06/15 10:03:00;;;;;;;7.40;2.28;;;24.10;65.80;;;;;;5033365;28;20046;-35
2022/06/15 10:05:30;;;;;;;4.43;1.70;;;24.10;63.30;;;;;;5025640;28;20057;-35
2022/06/15 10:07:57;;;;;;;6.50;1.70;;;24.20;64.10;;;;;;5033191;28;20081;-35
2022/06/15 10:10:27;;;;;;;8.40;2.05;;;24.30;64.20;;;;;;5033976;28;20042;-35
2022/06/15 10:12:58;;;;;;;4.57;1.67;;;24.50;63.30;;;;;;5033859;28;20136;-35
2022/06/15 10:15:49;;;;;;;6.72;1.70;;;24.50;62.60;;;;;;5033989;28;20056;-35
2022/06/15 10:18:20;;;;;;;4.10;1.80;;;24.70;63.20;;;;;;5033959;28;20140;-35
2022/06/15 10:20:56;;;;;;;4.53;1.60;;;24.70;60.70;;;;;;5031971;28;20057;-35
2022/06/15 10:23:25;;;;;;;4.70;1.85;;;24.70;62.30;;;;;;5033775;28;20104;-35
2022/06/15 10:25:55;;;;;;;6.40;1.80;;;24.90;61.20;;;;;;5032971;28;20081;-35
2022/06/15 10:28:23;;;;;;;8.20;2.35;;;25.20;61.30;;;;;;5033322;28;20053;-36
2022/06/15 10:30:52;;;;;;;6.75;2.00;;;25.40;60.20;;;;;;5032702;28;20466;-35
2022/06/15 10:33:19;;;;;;;6.97;2.00;;;25.60;60.30;;;;;;5032786;28;20128;-35
2022/06/15 10:35:49;;;;;;;8.40;1.95;;;25.80;59.20;;;;;;5032542;28;20053;-35
2022/06/15 10:38:16;;;;;;;5.75;1.67;;;25.80;59.10;;;;;;5032201;28;20099;-35
2022/06/15 10:40:52;;;;;;;4.97;1.75;;;25.90;59.30;;;;;;5031983;28;20050;-35
2022/06/15 10:43:24;;;;;;;5.53;1.85;;;26.00;58.30;;;;;;5033309;28;20128;-35
2022/06/15 10:45:58;;;;;;;4.75;1.95;;;25.90;59.20;;;;;;5032263;28;20053;-35
2022/06/15 10:48:28;;;;;;;4.53;1.55;;;26.00;58.50;;;;;;5033418;28;20060;-35
2022/06/15 10:51:00;;;;;;;9.40;1.87;;;26.20;58.40;;;;;;5033269;28;20053;-35
2022/06/15 10:53:31;;;;;;;6.80;1.88;;;26.10;58.70;;;;;;5033209;28;20723;-35
2022/06/15 11:04:17;;;;;;;5.30;1.73;;;25.60;57.20;;;;;;5032592;28;20050;-36
2022/06/15 11:06:46;;;;;;;6.82;1.70;;;25.60;57.50;;;;;;5032142;28;20085;-35
2022/06/15 11:09:19;;;;;;;5.18;1.70;;;25.70;56.60;;;;;;5030809;28;20057;-35
2022/06/15 11:11:45;;;;;;;5.55;1.67;;;25.90;56.10;;;;;;5033027;28;20084;-35
2022/06/15 11:14:19;;;;;;;5.88;1.95;;;25.90;57.40;;;;;;5032851;28;20107;-35
2022/06/15 11:19:32;;;;;;;3.05;1.23;;;25.90;57.20;;;;;;5013134;28;20054;-35
2022/06/15 11:22:02;;;;;;;4.97;1.40;;;26.10;59.00;;;;;;5024250;28;20053;-35
2022/06/15 11:24:34;;;;;;;7.93;1.98;;;26.30;57.50;;;;;;5031670;28;20085;-35
2022/06/15 11:27:04;;;;;;;10.43;2.13;;;26.50;56.10;;;;;;5027175;28;20041;-35
2022/06/15 11:29:52;;;;;;;6.10;1.60;;;26.60;55.20;;;;;;5031657;28;20397;-35
2022/06/15 11:32:29;;;;;;;7.78;1.88;;;26.60;55.50;;;;;;5012031;28;20200;-35
2022/06/15 11:34:59;;;;;;;3.63;1.55;;;26.70;55.80;;;;;;5028506;28;20128;-35
2022/06/15 11:37:29;;;;;;;2.90;1.80;;;26.80;55.00;;;;;;5031673;28;20124;-35
2022/06/15 11:39:58;;;;;;;4.82;1.60;;;26.90;55.80;;;;;;5031699;28;20303;-36
2022/06/15 11:42:25;;;;;;;5.63;1.50;;;27.00;55.70;;;;;;5031694;28;20447;-35
2022/06/15 11:44:53;;;;;;;3.42;1.33;;;27.10;55.00;;;;;;5031443;28;20100;-35
2022/06/15 11:47:25;;;;;;;7.32;1.88;;;27.10;55.30;;;;;;5031542;28;20119;-35
2022/06/15 11:49:58;;;;;;;5.07;1.58;;;27.10;54.50;;;;;;5029259;28;20144;-35
2022/06/15 11:52:32;;;;;;;5.75;1.60;;;27.10;54.90;;;;;;5031159;28;20559;-36
2022/06/15 11:55:17;;;;;;;6.53;1.63;;;27.00;55.30;;;;;;5022589;28;20103;-35
2022/06/15 11:57:49;;;;;;;2.47;1.17;;;26.90;56.30;;;;;;5029837;28;20081;-36
2022/06/15 12:00:22;;;;;;;5.10;1.58;;;26.80;57.10;;;;;;5033771;28;20133;-35
2022/06/15 12:03:10;;;;;;;5.05;1.58;;;26.80;56.40;;;;;;5032469;28;20141;-35
2022/06/15 12:05:38;;;;;;;4.70;1.52;;;26.80;57.30;;;;;;5032814;28;20042;-35
2022/06/15 12:08:12;;;;;;;7.28;1.92;;;26.80;56.10;;;;;;5034040;28;20080;-34
2022/06/15 12:10:44;;;;;;;2.97;1.52;;;26.90;55.30;;;;;;5031335;28;20079;-34
2022/06/15 12:13:17;;;;;;;6.85;1.80;;;27.00;53.40;;;;;;5031144;28;20049;-34
2022/06/15 12:15:46;;;;;;;6.10;1.65;;;27.00;53.50;;;;;;5033865;28;20521;-35
2022/06/15 12:18:19;;;;;;;6.13;1.60;;;27.00;54.30;;;;;;5035025;28;20096;-35
2022/06/15 12:20:51;;;;;;;5.47;1.70;;;27.10;53.20;;;;;;5034947;28;20103;-35
2022/06/15 12:23:43;;;;;;;7.35;1.65;;;27.30;54.80;;;;;;5035242;28;20117;-35
2022/06/15 12:26:23;;;;;;;4.35;1.55;;;27.70;53.80;;;;;;5031162;28;20045;-34
2022/06/15 12:28:55;;;;;;;4.05;1.48;;;27.90;52.00;;;;;;5034851;28;20132;-35
2022/06/15 12:31:26;;;;;;;4.97;1.70;;;27.90;51.90;;;;;;5034767;28;20057;-35
2022/06/15 12:33:55;;;;;;;6.43;1.73;;;28.10;51.70;;;;;;5035232;28;20485;-35
2022/06/15 12:36:24;;;;;;;5.18;1.65;;;28.20;51.60;;;;;;5035805;28;20068;-34
2022/06/15 12:38:55;;;;;;;3.72;1.45;;;28.20;50.70;;;;;;5034603;28;20045;-34
2022/06/15 12:44:15;;;;;;;5.43;1.50;;;27.80;52.70;;;;;;5035789;28;20053;-34
2022/06/15 12:46:44;;;;;;;6.35;2.03;;;27.70;53.30;;;;;;5032829;28;20088;-35
2022/06/15 12:49:18;;;;;;;7.13;1.88;;;27.50;52.80;;;;;;5032888;28;20137;-35
2022/06/15 12:51:47;;;;;;;5.43;1.58;;;27.60;52.70;;;;;;5027197;28;20096;-35
2022/06/15 12:54:17;;;;;;;4.88;2.03;;;27.90;53.30;;;;;;5035000;28;20156;-35
2022/06/15 12:56:48;;;;;;;6.40;1.50;;;28.00;52.50;;;;;;5034886;28;20073;-36
2022/06/15 12:59:22;;;;;;;4.25;1.50;;;28.20;53.40;;;;;;5033044;28;20156;-35
2022/06/15 13:01:55;;;;;;;5.85;1.70;;;28.20;52.20;;;;;;5032964;28;20492;-35
2022/06/15 13:04:27;;;;;;;4.65;1.90;;;27.90;52.20;;;;;;5035403;28;20526;-35
2022/06/15 13:07:26;;;;;;;6.53;1.70;;;27.60;52.70;;;;;;5024063;28;20069;-35
2022/06/15 13:10:13;;;;;;;4.72;1.67;;;27.50;51.60;;;;;;5024480;28;20420;-35
2022/06/15 13:12:42;;;;;;;5.80;1.70;;;27.50;52.20;;;;;;5034443;28;20085;-35
2022/06/15 13:15:18;;;;;;;5.25;1.50;;;27.40;52.60;;;;;;5037979;28;20141;-35